sensor_id;sensor_type;location;lat;lon;timestamp;temperature;humidity
69932;DHT22;57243;52.064;5.116;2023-05-20T01:48:24;17.90;55.80
69932;DHT22;57243;52.064;5.116;2023-05-20T01:50:49;17.90;55.70
69932;DHT22;57243;52.064;5.116;2023-05-20T01:53:15;17.90;55.80
69932;DHT22;57243;52.064;5.116;2023-05-20T01:55:40;17.90;55.70
69932;DHT22;57243;52.064;5.116;2023-05-20T01:58:06;17.90;55.80
69932;DHT22;57243;52.064;5.116;2023-05-20T02:00:32;17.90;55.90
69932;DHT22;57243;52.064;5.116;2023-05-20T02:02:58;17.90;55.90
69932;DHT22;57243;52.064;5.116;2023-05-20T02:05:23;17.90;55.90
69932;DHT22;57243;52.064;5.116;2023-05-20T02:07:49;17.90;55.80
69932;DHT22;57243;52.064;5.116;2023-05-20T02:10:14;17.80;55.80
69932;DHT22;57243;52.064;5.116;2023-05-20T02:12:40;17.80;55.90
69932;DHT22;57243;52.064;5.116;2023-05-20T02:15:06;17.80;55.80
69932;DHT22;57243;52.064;5.116;2023-05-20T02:17:31;17.90;55.80
69932;DHT22;57243;52.064;5.116;2023-05-20T02:19:57;17.80;55.70
69932;DHT22;57243;52.064;5.116;2023-05-20T02:22:22;17.80;56.00
69932;DHT22;57243;52.064;5.116;2023-05-20T02:24:48;17.80;55.80
69932;DHT22;57243;52.064;5.116;2023-05-20T02:27:13;17.80;55.70
69932;DHT22;57243;52.064;5.116;2023-05-20T02:29:42;17.80;55.80
69932;DHT22;57243;52.064;5.116;2023-05-20T02:32:08;17.80;55.90
69932;DHT22;57243;52.064;5.116;2023-05-20T02:34:34;17.90;56.00
69932;DHT22;57243;52.064;5.116;2023-05-20T02:36:59;17.80;55.90
69932;DHT22;57243;52.064;5.116;2023-05-20T02:39:25;17.80;55.70
69932;DHT22;57243;52.064;5.116;2023-05-20T02:41:52;17.80;55.80
69932;DHT22;57243;52.064;5.116;2023-05-20T02:44:18;17.80;55.60
69932;DHT22;57243;52.064;5.116;2023-05-20T02:46:43;17.80;56.00
69932;DHT22;57243;52.064;5.116;2023-05-20T02:49:09;17.80;56.00
69932;DHT22;57243;52.064;5.116;2023-05-20T02:51:35;17.80;56.00
69932;DHT22;57243;52.064;5.116;2023-05-20T02:54:00;17.80;56.00
69932;DHT22;57243;52.064;5.116;2023-05-20T02:56:26;17.80;55.80
69932;DHT22;57243;52.064;5.116;2023-05-20T02:58:52;17.80;56.00
69932;DHT22;57243;52.064;5.116;2023-05-20T03:01:18;17.80;56.00
69932;DHT22;57243;52.064;5.116;2023-05-20T03:03:43;17.80;56.00
69932;DHT22;57243;52.064;5.116;2023-05-20T03:06:09;17.80;55.90
69932;DHT22;57243;52.064;5.116;2023-05-20T03:08:34;17.80;56.00
69932;DHT22;57243;52.064;5.116;2023-05-20T03:11:00;17.80;56.10
69932;DHT22;57243;52.064;5.116;2023-05-20T03:13:26;17.80;56.00
69932;DHT22;57243;52.064;5.116;2023-05-20T03:15:51;17.80;56.10
69932;DHT22;57243;52.064;5.116;2023-05-20T03:18:17;17.80;55.90
69932;DHT22;57243;52.064;5.116;2023-05-20T03:20:43;17.80;55.90
69932;DHT22;57243;52.064;5.116;2023-05-20T03:23:08;17.80;56.00
69932;DHT22;57243;52.064;5.116;2023-05-20T03:25:35;17.80;56.10
69932;DHT22;57243;52.064;5.116;2023-05-20T03:28:00;17.80;56.00
69932;DHT22;57243;52.064;5.116;2023-05-20T03:30:26;17.80;56.00
69932;DHT22;57243;52.064;5.116;2023-05-20T03:32:52;17.80;56.00
69932;DHT22;57243;52.064;5.116;2023-05-20T03:35:18;17.70;56.10
69932;DHT22;57243;52.064;5.116;2023-05-20T03:37:43;17.80;56.20
69932;DHT22;57243;52.064;5.116;2023-05-20T03:40:09;17.80;56.20
69932;DHT22;57243;52.064;5.116;2023-05-20T03:42:35;17.80;56.20
69932;DHT22;57243;52.064;5.116;2023-05-20T03:45:00;17.80;56.10
69932;DHT22;57243;52.064;5.116;2023-05-20T03:47:26;17.80;56.20
69932;DHT22;57243;52.064;5.116;2023-05-20T03:49:52;17.80;56.30
69932;DHT22;57243;52.064;5.116;2023-05-20T03:52:17;17.80;56.40
69932;DHT22;57243;52.064;5.116;2023-05-20T03:54:43;17.80;56.40
69932;DHT22;57243;52.064;5.116;2023-05-20T03:57:08;17.80;56.20
69932;DHT22;57243;52.064;5.116;2023-05-20T03:59:35;17.80;56.40
69932;DHT22;57243;52.064;5.116;2023-05-20T04:02:01;17.80;56.10
69932;DHT22;57243;52.064;5.116;2023-05-20T04:04:26;17.80;56.50
69932;DHT22;57243;52.064;5.116;2023-05-20T04:06:52;17.80;56.40
69932;DHT22;57243;52.064;5.116;2023-05-20T04:09:18;17.80;56.40
69932;DHT22;57243;52.064;5.116;2023-05-20T04:11:44;17.80;56.60
69932;DHT22;57243;52.064;5.116;2023-05-20T04:14:09;17.80;56.50
69932;DHT22;57243;52.064;5.116;2023-05-20T04:16:35;17.80;56.60
69932;DHT22;57243;52.064;5.116;2023-05-20T04:19:02;17.80;56.60
69932;DHT22;57243;52.064;5.116;2023-05-20T04:21:27;17.80;56.60
69932;DHT22;57243;52.064;5.116;2023-05-20T04:23:53;17.80;57.40
69932;DHT22;57243;52.064;5.116;2023-05-20T04:26:18;17.80;58.20
69932;DHT22;57243;52.064;5.116;2023-05-20T04:28:45;17.90;58.80
69932;DHT22;57243;52.064;5.116;2023-05-20T04:31:13;17.90;59.10
69932;DHT22;57243;52.064;5.116;2023-05-20T04:33:38;17.90;59.30
69932;DHT22;57243;52.064;5.116;2023-05-20T04:36:05;17.90;58.90
69932;DHT22;57243;52.064;5.116;2023-05-20T04:38:31;17.90;59.10
69932;DHT22;57243;52.064;5.116;2023-05-20T04:40:57;17.90;58.80
69932;DHT22;57243;52.064;5.116;2023-05-20T04:43:23;17.80;58.90
69932;DHT22;57243;52.064;5.116;2023-05-20T04:45:49;17.80;58.90
69932;DHT22;57243;52.064;5.116;2023-05-20T04:48:14;17.80;59.50
69932;DHT22;57243;52.064;5.116;2023-05-20T04:50:40;17.90;60.10
69932;DHT22;57243;52.064;5.116;2023-05-20T04:53:06;18.00;60.40
69932;DHT22;57243;52.064;5.116;2023-05-20T04:55:32;18.00;60.00
69932;DHT22;57243;52.064;5.116;2023-05-20T04:57:57;18.10;59.80
69932;DHT22;57243;52.064;5.116;2023-05-20T05:00:23;18.10;59.70
69932;DHT22;57243;52.064;5.116;2023-05-20T05:02:49;18.10;59.70
69932;DHT22;57243;52.064;5.116;2023-05-20T05:05:14;18.10;59.30
69932;DHT22;57243;52.064;5.116;2023-05-20T05:07:40;18.10;59.60
69932;DHT22;57243;52.064;5.116;2023-05-20T05:10:05;18.10;59.60
69932;DHT22;57243;52.064;5.116;2023-05-20T05:12:31;18.10;59.50
69932;DHT22;57243;52.064;5.116;2023-05-20T05:14:57;18.10;59.40
69932;DHT22;57243;52.064;5.116;2023-05-20T05:17:23;18.10;59.40
69932;DHT22;57243;52.064;5.116;2023-05-20T05:19:48;18.10;59.20
69932;DHT22;57243;52.064;5.116;2023-05-20T05:22:14;18.10;59.10
69932;DHT22;57243;52.064;5.116;2023-05-20T05:24:39;18.10;59.10
69932;DHT22;57243;52.064;5.116;2023-05-20T05:27:05;18.10;58.90
69932;DHT22;57243;52.064;5.116;2023-05-20T05:29:30;18.20;59.10
69932;DHT22;57243;52.064;5.116;2023-05-20T05:31:55;18.20;59.00
69932;DHT22;57243;52.064;5.116;2023-05-20T05:34:21;18.30;58.20
69932;DHT22;57243;52.064;5.116;2023-05-20T05:36:46;18.20;58.50
69932;DHT22;57243;52.064;5.116;2023-05-20T05:39:12;18.20;58.20
69932;DHT22;57243;52.064;5.116;2023-05-20T05:41:37;18.20;57.60
69932;DHT22;57243;52.064;5.116;2023-05-20T05:44:03;18.10;56.00
69932;DHT22;57243;52.064;5.116;2023-05-20T05:46:29;17.90;55.60
69932;DHT22;57243;52.064;5.116;2023-05-20T05:48:55;17.70;56.10
69932;DHT22;57243;52.064;5.116;2023-05-20T05:51:23;17.60;55.50
69932;DHT22;57243;52.064;5.116;2023-05-20T05:53:49;17.60;56.30
69932;DHT22;57243;52.064;5.116;2023-05-20T05:56:15;17.50;55.30
69932;DHT22;57243;52.064;5.116;2023-05-20T05:58:40;17.40;55.40
69932;DHT22;57243;52.064;5.116;2023-05-20T06:01:06;17.40;55.50
69932;DHT22;57243;52.064;5.116;2023-05-20T06:03:31;17.40;55.60
69932;DHT22;57243;52.064;5.116;2023-05-20T06:05:57;17.40;55.70
69932;DHT22;57243;52.064;5.116;2023-05-20T06:08:22;17.30;55.40
69932;DHT22;57243;52.064;5.116;2023-05-20T06:10:48;17.30;55.40
69932;DHT22;57243;52.064;5.116;2023-05-20T06:13:14;17.30;56.00
69932;DHT22;57243;52.064;5.116;2023-05-20T06:15:40;17.40;55.60
69932;DHT22;57243;52.064;5.116;2023-05-20T06:18:05;17.40;55.40
69932;DHT22;57243;52.064;5.116;2023-05-20T06:20:31;17.40;55.70
69932;DHT22;57243;52.064;5.116;2023-05-20T06:22:56;17.40;55.60
69932;DHT22;57243;52.064;5.116;2023-05-20T06:25:22;17.40;55.10
69932;DHT22;57243;52.064;5.116;2023-05-20T06:27:47;17.30;54.80
69932;DHT22;57243;52.064;5.116;2023-05-20T06:30:13;17.30;54.60
69932;DHT22;57243;52.064;5.116;2023-05-20T06:32:38;17.30;54.60
69932;DHT22;57243;52.064;5.116;2023-05-20T06:35:04;17.30;55.00
69932;DHT22;57243;52.064;5.116;2023-05-20T06:37:30;17.30;54.40
69932;DHT22;57243;52.064;5.116;2023-05-20T06:39:55;17.20;54.70
69932;DHT22;57243;52.064;5.116;2023-05-20T06:42:21;17.30;54.60
69932;DHT22;57243;52.064;5.116;2023-05-20T06:44:46;17.30;55.00
69932;DHT22;57243;52.064;5.116;2023-05-20T06:47:13;17.30;54.70
69932;DHT22;57243;52.064;5.116;2023-05-20T06:49:38;17.40;54.20
69932;DHT22;57243;52.064;5.116;2023-05-20T06:52:04;17.30;54.10
69932;DHT22;57243;52.064;5.116;2023-05-20T06:54:29;17.30;54.20
69932;DHT22;57243;52.064;5.116;2023-05-20T06:56:58;17.30;54.10
69932;DHT22;57243;52.064;5.116;2023-05-20T06:59:24;17.30;54.10
69932;DHT22;57243;52.064;5.116;2023-05-20T07:01:49;17.30;54.30
69932;DHT22;57243;52.064;5.116;2023-05-20T07:04:15;17.30;54.30
69932;DHT22;57243;52.064;5.116;2023-05-20T07:06:40;17.30;54.30
69932;DHT22;57243;52.064;5.116;2023-05-20T07:09:06;17.30;54.40
69932;DHT22;57243;52.064;5.116;2023-05-20T07:11:32;17.30;54.20
69932;DHT22;57243;52.064;5.116;2023-05-20T07:13:57;17.30;54.10
69932;DHT22;57243;52.064;5.116;2023-05-20T07:16:23;17.30;54.00
69932;DHT22;57243;52.064;5.116;2023-05-20T07:18:48;17.40;54.10
69932;DHT22;57243;52.064;5.116;2023-05-20T07:21:14;17.30;53.80
69932;DHT22;57243;52.064;5.116;2023-05-20T07:23:39;17.40;53.90
69932;DHT22;57243;52.064;5.116;2023-05-20T07:26:05;17.40;53.90
69932;DHT22;57243;52.064;5.116;2023-05-20T07:28:30;17.40;53.90
69932;DHT22;57243;52.064;5.116;2023-05-20T07:30:56;17.40;53.80
69932;DHT22;57243;52.064;5.116;2023-05-20T07:33:22;17.40;54.10
69932;DHT22;57243;52.064;5.116;2023-05-20T07:35:48;17.40;54.00
69932;DHT22;57243;52.064;5.116;2023-05-20T07:38:13;17.40;53.80
69932;DHT22;57243;52.064;5.116;2023-05-20T07:40:39;17.40;53.90
69932;DHT22;57243;52.064;5.116;2023-05-20T07:43:06;17.40;53.90
69932;DHT22;57243;52.064;5.116;2023-05-20T07:45:34;17.50;53.80
69932;DHT22;57243;52.064;5.116;2023-05-20T07:48:01;17.50;54.20
69932;DHT22;57243;52.064;5.116;2023-05-20T07:50:26;17.60;53.80
69932;DHT22;57243;52.064;5.116;2023-05-20T07:52:52;17.60;54.60
69932;DHT22;57243;52.064;5.116;2023-05-20T07:55:17;17.70;54.80
69932;DHT22;57243;52.064;5.116;2023-05-20T07:57:43;17.70;54.60
69932;DHT22;57243;52.064;5.116;2023-05-20T08:00:08;17.80;54.10
69932;DHT22;57243;52.064;5.116;2023-05-20T08:02:36;17.80;54.10
69932;DHT22;57243;52.064;5.116;2023-05-20T08:05:01;17.80;53.40
69932;DHT22;57243;52.064;5.116;2023-05-20T08:07:27;17.80;54.00
69932;DHT22;57243;52.064;5.116;2023-05-20T08:09:52;17.90;53.90
69932;DHT22;57243;52.064;5.116;2023-05-20T08:12:18;17.90;53.10
69932;DHT22;57243;52.064;5.116;2023-05-20T08:14:44;17.90;53.60
69932;DHT22;57243;52.064;5.116;2023-05-20T08:17:09;17.90;53.00
69932;DHT22;57243;52.064;5.116;2023-05-20T08:19:35;17.90;52.90
69932;DHT22;57243;52.064;5.116;2023-05-20T08:22:00;17.90;52.00
69932;DHT22;57243;52.064;5.116;2023-05-20T08:24:26;17.90;51.20
69932;DHT22;57243;52.064;5.116;2023-05-20T08:26:52;17.80;51.00
69932;DHT22;57243;52.064;5.116;2023-05-20T08:29:17;17.90;51.10
69932;DHT22;57243;52.064;5.116;2023-05-20T08:31:43;17.90;50.80
69932;DHT22;57243;52.064;5.116;2023-05-20T08:34:08;17.90;50.20
69932;DHT22;57243;52.064;5.116;2023-05-20T08:36:34;17.90;51.40
69932;DHT22;57243;52.064;5.116;2023-05-20T08:39:00;17.90;50.30
69932;DHT22;57243;52.064;5.116;2023-05-20T08:41:26;18.00;50.50
69932;DHT22;57243;52.064;5.116;2023-05-20T08:43:51;18.00;50.20
69932;DHT22;57243;52.064;5.116;2023-05-20T08:46:17;18.00;50.50
69932;DHT22;57243;52.064;5.116;2023-05-20T08:48:43;18.00;49.30
69932;DHT22;57243;52.064;5.116;2023-05-20T08:51:09;17.90;49.60
69932;DHT22;57243;52.064;5.116;2023-05-20T08:53:35;18.00;49.40
69932;DHT22;57243;52.064;5.116;2023-05-20T08:56:01;18.00;49.80
69932;DHT22;57243;52.064;5.116;2023-05-20T08:58:29;18.00;49.00
69932;DHT22;57243;52.064;5.116;2023-05-20T09:00:55;18.10;48.90
69932;DHT22;57243;52.064;5.116;2023-05-20T09:03:22;18.10;48.20
69932;DHT22;57243;52.064;5.116;2023-05-20T09:05:50;18.10;48.30
69932;DHT22;57243;52.064;5.116;2023-05-20T09:08:15;18.20;48.70
69932;DHT22;57243;52.064;5.116;2023-05-20T09:10:41;18.20;48.20
69932;DHT22;57243;52.064;5.116;2023-05-20T09:13:07;18.30;48.70
69932;DHT22;57243;52.064;5.116;2023-05-20T09:15:32;18.20;48.50
69932;DHT22;57243;52.064;5.116;2023-05-20T09:17:59;18.30;47.10
69932;DHT22;57243;52.064;5.116;2023-05-20T09:20:25;18.20;46.80
69932;DHT22;57243;52.064;5.116;2023-05-20T09:22:51;18.20;48.40
69932;DHT22;57243;52.064;5.116;2023-05-20T09:25:19;18.30;49.10
69932;DHT22;57243;52.064;5.116;2023-05-20T09:27:45;18.40;50.90
69932;DHT22;57243;52.064;5.116;2023-05-20T09:30:11;18.40;50.50
69932;DHT22;57243;52.064;5.116;2023-05-20T09:32:37;18.40;51.60
69932;DHT22;57243;52.064;5.116;2023-05-20T09:35:02;18.40;50.40
69932;DHT22;57243;52.064;5.116;2023-05-20T09:37:30;18.40;50.60
69932;DHT22;57243;52.064;5.116;2023-05-20T09:39:59;18.40;50.30
69932;DHT22;57243;52.064;5.116;2023-05-20T09:42:30;18.30;49.40
69932;DHT22;57243;52.064;5.116;2023-05-20T09:44:58;18.30;48.30
69932;DHT22;57243;52.064;5.116;2023-05-20T09:47:24;18.30;48.70
69932;DHT22;57243;52.064;5.116;2023-05-20T09:49:50;18.30;48.00
69932;DHT22;57243;52.064;5.116;2023-05-20T09:52:16;18.30;48.80
69932;DHT22;57243;52.064;5.116;2023-05-20T09:54:42;18.20;50.70
69932;DHT22;57243;52.064;5.116;2023-05-20T09:57:08;18.30;49.70
69932;DHT22;57243;52.064;5.116;2023-05-20T09:59:34;18.20;48.50
69932;DHT22;57243;52.064;5.116;2023-05-20T10:02:01;18.20;47.80
69932;DHT22;57243;52.064;5.116;2023-05-20T10:04:26;18.30;47.50
69932;DHT22;57243;52.064;5.116;2023-05-20T10:09:47;18.20;47.00
69932;DHT22;57243;52.064;5.116;2023-05-20T10:12:22;18.20;47.30
69932;DHT22;57243;52.064;5.116;2023-05-20T10:18:05;18.30;48.20
69932;DHT22;57243;52.064;5.116;2023-05-20T10:20:09;18.30;46.80
69932;DHT22;57243;52.064;5.116;2023-05-20T10:22:38;18.30;46.80
69932;DHT22;57243;52.064;5.116;2023-05-20T10:25:05;18.30;46.10
69932;DHT22;57243;52.064;5.116;2023-05-20T10:27:44;18.30;47.20
69932;DHT22;57243;52.064;5.116;2023-05-20T10:30:20;18.30;47.60
69932;DHT22;57243;52.064;5.116;2023-05-20T10:32:52;18.30;48.20
69932;DHT22;57243;52.064;5.116;2023-05-20T10:35:21;18.30;47.80
69932;DHT22;57243;52.064;5.116;2023-05-20T10:37:46;18.30;47.20
69932;DHT22;57243;52.064;5.116;2023-05-20T10:40:13;18.30;47.00
69932;DHT22;57243;52.064;5.116;2023-05-20T10:42:39;18.30;47.40
69932;DHT22;57243;52.064;5.116;2023-05-20T10:45:05;18.30;47.50
69932;DHT22;57243;52.064;5.116;2023-05-20T10:47:31;18.30;48.20
69932;DHT22;57243;52.064;5.116;2023-05-20T10:49:57;18.30;48.10
69932;DHT22;57243;52.064;5.116;2023-05-20T10:52:23;18.30;47.60
69932;DHT22;57243;52.064;5.116;2023-05-20T10:57:17;18.40;48.10
69932;DHT22;57243;52.064;5.116;2023-05-20T10:59:43;18.40;47.60
69932;DHT22;57243;52.064;5.116;2023-05-20T11:02:09;18.40;47.70
69932;DHT22;57243;52.064;5.116;2023-05-20T11:04:36;18.40;47.60
69932;DHT22;57243;52.064;5.116;2023-05-20T11:07:02;18.40;47.80
69932;DHT22;57243;52.064;5.116;2023-05-20T11:09:28;18.40;47.10
69932;DHT22;57243;52.064;5.116;2023-05-20T11:11:55;18.40;47.10
69932;DHT22;57243;52.064;5.116;2023-05-20T11:14:20;18.40;47.60
69932;DHT22;57243;52.064;5.116;2023-05-20T11:16:49;18.40;47.70
69932;DHT22;57243;52.064;5.116;2023-05-20T11:19:15;18.40;48.10
69932;DHT22;57243;52.064;5.116;2023-05-20T11:21:41;18.40;47.80
69932;DHT22;57243;52.064;5.116;2023-05-20T11:24:07;18.40;47.30
69932;DHT22;57243;52.064;5.116;2023-05-20T11:26:32;18.40;47.30
69932;DHT22;57243;52.064;5.116;2023-05-20T11:28:58;18.40;47.70
69932;DHT22;57243;52.064;5.116;2023-05-20T11:31:24;18.40;47.90
69932;DHT22;57243;52.064;5.116;2023-05-20T11:33:51;18.40;48.10
69932;DHT22;57243;52.064;5.116;2023-05-20T11:36:17;18.50;48.70
69932;DHT22;57243;52.064;5.116;2023-05-20T11:38:44;18.50;48.70
69932;DHT22;57243;52.064;5.116;2023-05-20T11:41:10;18.50;48.00
69932;DHT22;57243;52.064;5.116;2023-05-20T11:43:35;18.40;48.10
69932;DHT22;57243;52.064;5.116;2023-05-20T11:46:00;18.40;48.40
69932;DHT22;57243;52.064;5.116;2023-05-20T11:48:26;18.50;48.40
69932;DHT22;57243;52.064;5.116;2023-05-20T11:50:52;18.40;48.20
69932;DHT22;57243;52.064;5.116;2023-05-20T11:53:19;18.50;47.80
69932;DHT22;57243;52.064;5.116;2023-05-20T11:55:48;18.40;47.80
69932;DHT22;57243;52.064;5.116;2023-05-20T11:58:15;18.40;47.90
69932;DHT22;57243;52.064;5.116;2023-05-20T12:00:40;18.40;48.10
69932;DHT22;57243;52.064;5.116;2023-05-20T12:03:06;18.50;48.50
69932;DHT22;57243;52.064;5.116;2023-05-20T12:05:31;18.50;48.10
69932;DHT22;57243;52.064;5.116;2023-05-20T12:07:57;18.50;48.30
69932;DHT22;57243;52.064;5.116;2023-05-20T12:10:22;18.50;48.50
69932;DHT22;57243;52.064;5.116;2023-05-20T12:12:48;18.50;48.20
69932;DHT22;57243;52.064;5.116;2023-05-20T12:15:13;18.50;48.10
69932;DHT22;57243;52.064;5.116;2023-05-20T12:17:43;18.50;47.70
69932;DHT22;57243;52.064;5.116;2023-05-20T12:20:09;18.50;47.70
69932;DHT22;57243;52.064;5.116;2023-05-20T12:22:35;18.50;47.90
69932;DHT22;57243;52.064;5.116;2023-05-20T12:25:00;18.50;47.80
69932;DHT22;57243;52.064;5.116;2023-05-20T12:27:26;18.50;47.90
69932;DHT22;57243;52.064;5.116;2023-05-20T12:29:52;18.50;48.00
69932;DHT22;57243;52.064;5.116;2023-05-20T12:32:17;18.50;48.10
69932;DHT22;57243;52.064;5.116;2023-05-20T12:34:43;18.50;48.20
69932;DHT22;57243;52.064;5.116;2023-05-20T12:37:08;18.50;47.90
69932;DHT22;57243;52.064;5.116;2023-05-20T12:39:34;18.50;47.70
69932;DHT22;57243;52.064;5.116;2023-05-20T12:41:59;18.50;47.50
69932;DHT22;57243;52.064;5.116;2023-05-20T12:44:25;18.60;47.60
69932;DHT22;57243;52.064;5.116;2023-05-20T12:46:51;18.60;47.80
69932;DHT22;57243;52.064;5.116;2023-05-20T12:49:16;18.60;48.10
69932;DHT22;57243;52.064;5.116;2023-05-20T12:51:42;18.60;48.00
69932;DHT22;57243;52.064;5.116;2023-05-20T12:54:07;18.60;47.80
69932;DHT22;57243;52.064;5.116;2023-05-20T12:56:32;18.60;47.70
69932;DHT22;57243;52.064;5.116;2023-05-20T12:58:58;18.60;47.80
69932;DHT22;57243;52.064;5.116;2023-05-20T13:01:23;18.70;48.00
69932;DHT22;57243;52.064;5.116;2023-05-20T13:03:49;18.60;47.80
69932;DHT22;57243;52.064;5.116;2023-05-20T13:06:17;18.60;47.80
69932;DHT22;57243;52.064;5.116;2023-05-20T13:08:43;18.70;47.80
69932;DHT22;57243;52.064;5.116;2023-05-20T13:11:09;18.80;46.50
69932;DHT22;57243;52.064;5.116;2023-05-20T13:13:35;18.90;45.60
69932;DHT22;57243;52.064;5.116;2023-05-20T13:16:00;18.90;45.80
69932;DHT22;57243;52.064;5.116;2023-05-20T13:18:27;18.90;45.80
69932;DHT22;57243;52.064;5.116;2023-05-20T13:20:52;18.80;47.40
69932;DHT22;57243;52.064;5.116;2023-05-20T13:23:17;18.80;48.40
69932;DHT22;57243;52.064;5.116;2023-05-20T13:25:43;18.70;48.50
69932;DHT22;57243;52.064;5.116;2023-05-20T13:28:09;18.70;48.60
69932;DHT22;57243;52.064;5.116;2023-05-20T13:30:34;18.60;47.90
69932;DHT22;57243;52.064;5.116;2023-05-20T13:33:00;18.70;47.10
69932;DHT22;57243;52.064;5.116;2023-05-20T13:35:25;18.70;48.00
69932;DHT22;57243;52.064;5.116;2023-05-20T13:37:51;18.70;48.30
69932;DHT22;57243;52.064;5.116;2023-05-20T13:40:16;18.60;47.70
69932;DHT22;57243;52.064;5.116;2023-05-20T13:42:42;18.60;48.00
69932;DHT22;57243;52.064;5.116;2023-05-20T13:45:08;18.60;48.50
69932;DHT22;57243;52.064;5.116;2023-05-20T13:47:34;18.60;48.60
69932;DHT22;57243;52.064;5.116;2023-05-20T13:49:59;18.60;48.30
69932;DHT22;57243;52.064;5.116;2023-05-20T13:52:25;18.60;48.50
69932;DHT22;57243;52.064;5.116;2023-05-20T13:54:50;18.70;48.40
69932;DHT22;57243;52.064;5.116;2023-05-20T13:57:16;18.60;48.50
69932;DHT22;57243;52.064;5.116;2023-05-20T13:59:41;18.60;48.70
69932;DHT22;57243;52.064;5.116;2023-05-20T14:02:07;18.50;48.60
69932;DHT22;57243;52.064;5.116;2023-05-20T14:04:32;18.60;48.70
69932;DHT22;57243;52.064;5.116;2023-05-20T14:07:06;18.50;48.70
69932;DHT22;57243;52.064;5.116;2023-05-20T14:09:32;18.50;48.70
69932;DHT22;57243;52.064;5.116;2023-05-20T14:11:57;18.50;48.70
69932;DHT22;57243;52.064;5.116;2023-05-20T14:14:23;18.50;48.80
69932;DHT22;57243;52.064;5.116;2023-05-20T14:16:48;18.50;48.80
69932;DHT22;57243;52.064;5.116;2023-05-20T14:19:14;18.50;48.60
69932;DHT22;57243;52.064;5.116;2023-05-20T14:21:39;18.60;49.00
69932;DHT22;57243;52.064;5.116;2023-05-20T14:24:05;18.70;47.40
69932;DHT22;57243;52.064;5.116;2023-05-20T14:26:32;18.80;47.40
69932;DHT22;57243;52.064;5.116;2023-05-20T14:28:57;18.90;47.20
69932;DHT22;57243;52.064;5.116;2023-05-20T14:31:23;18.80;47.60
69932;DHT22;57243;52.064;5.116;2023-05-20T14:33:48;18.80;47.00
69932;DHT22;57243;52.064;5.116;2023-05-20T14:36:14;18.80;48.50
69932;DHT22;57243;52.064;5.116;2023-05-20T14:38:39;18.80;49.10
69932;DHT22;57243;52.064;5.116;2023-05-20T14:41:05;18.70;49.30
69932;DHT22;57243;52.064;5.116;2023-05-20T14:43:30;18.80;47.80
69932;DHT22;57243;52.064;5.116;2023-05-20T14:45:56;18.90;46.80
69932;DHT22;57243;52.064;5.116;2023-05-20T14:48:22;18.90;48.60
69932;DHT22;57243;52.064;5.116;2023-05-20T14:50:47;18.90;49.00
69932;DHT22;57243;52.064;5.116;2023-05-20T14:53:13;18.90;47.30
69932;DHT22;57243;52.064;5.116;2023-05-20T14:55:38;18.90;49.00
69932;DHT22;57243;52.064;5.116;2023-05-20T14:58:04;18.90;48.10
69932;DHT22;57243;52.064;5.116;2023-05-20T15:00:29;19.00;48.00
69932;DHT22;57243;52.064;5.116;2023-05-20T15:02:56;19.00;48.40
69932;DHT22;57243;52.064;5.116;2023-05-20T15:05:22;19.00;47.60
69932;DHT22;57243;52.064;5.116;2023-05-20T15:07:48;18.90;48.20
69932;DHT22;57243;52.064;5.116;2023-05-20T15:10:13;19.00;47.60
69932;DHT22;57243;52.064;5.116;2023-05-20T15:12:39;18.90;48.00
69932;DHT22;57243;52.064;5.116;2023-05-20T15:15:04;18.90;47.20
69932;DHT22;57243;52.064;5.116;2023-05-20T15:17:30;19.00;46.20
69932;DHT22;57243;52.064;5.116;2023-05-20T15:19:55;19.10;47.10
69932;DHT22;57243;52.064;5.116;2023-05-20T15:22:21;19.00;46.90
69932;DHT22;57243;52.064;5.116;2023-05-20T15:24:46;19.00;46.80
69932;DHT22;57243;52.064;5.116;2023-05-20T15:27:12;19.00;47.70
69932;DHT22;57243;52.064;5.116;2023-05-20T15:29:37;19.00;47.70
69932;DHT22;57243;52.064;5.116;2023-05-20T15:32:03;18.90;48.00
69932;DHT22;57243;52.064;5.116;2023-05-20T15:34:30;18.90;48.00
69932;DHT22;57243;52.064;5.116;2023-05-20T15:36:55;19.10;46.00
69932;DHT22;57243;52.064;5.116;2023-05-20T15:39:21;19.20;45.90
69932;DHT22;57243;52.064;5.116;2023-05-20T15:41:46;19.30;45.80
69932;DHT22;57243;52.064;5.116;2023-05-20T15:44:14;19.30;45.50
69932;DHT22;57243;52.064;5.116;2023-05-20T15:46:39;19.30;45.50
69932;DHT22;57243;52.064;5.116;2023-05-20T15:49:05;19.30;45.80
69932;DHT22;57243;52.064;5.116;2023-05-20T15:51:30;19.30;45.30
69932;DHT22;57243;52.064;5.116;2023-05-20T15:53:56;19.30;45.20
69932;DHT22;57243;52.064;5.116;2023-05-20T15:56:22;19.30;45.20
69932;DHT22;57243;52.064;5.116;2023-05-20T15:58:48;19.30;45.10
69932;DHT22;57243;52.064;5.116;2023-05-20T16:01:13;19.40;44.70
69932;DHT22;57243;52.064;5.116;2023-05-20T16:03:39;19.40;45.20
69932;DHT22;57243;52.064;5.116;2023-05-20T16:06:04;19.40;44.90
69932;DHT22;57243;52.064;5.116;2023-05-20T16:08:30;19.40;45.30
69932;DHT22;57243;52.064;5.116;2023-05-20T16:10:55;19.20;46.00
69932;DHT22;57243;52.064;5.116;2023-05-20T16:13:21;19.20;45.50
69932;DHT22;57243;52.064;5.116;2023-05-20T16:15:46;19.30;45.30
69932;DHT22;57243;52.064;5.116;2023-05-20T16:18:14;19.30;45.40
69932;DHT22;57243;52.064;5.116;2023-05-20T16:20:39;19.20;45.60
69932;DHT22;57243;52.064;5.116;2023-05-20T16:23:05;19.20;45.30
69932;DHT22;57243;52.064;5.116;2023-05-20T16:25:30;19.30;45.80
69932;DHT22;57243;52.064;5.116;2023-05-20T16:27:56;19.30;45.10
69932;DHT22;57243;52.064;5.116;2023-05-20T16:30:25;19.40;44.90
69932;DHT22;57243;52.064;5.116;2023-05-20T16:32:50;19.40;44.90
69932;DHT22;57243;52.064;5.116;2023-05-20T16:35:16;19.30;45.30
69932;DHT22;57243;52.064;5.116;2023-05-20T16:37:41;19.30;45.30
69932;DHT22;57243;52.064;5.116;2023-05-20T16:40:08;19.20;45.70
69932;DHT22;57243;52.064;5.116;2023-05-20T16:42:34;19.30;45.30
69932;DHT22;57243;52.064;5.116;2023-05-20T16:44:59;19.30;45.70
69932;DHT22;57243;52.064;5.116;2023-05-20T16:47:25;19.30;45.40
69932;DHT22;57243;52.064;5.116;2023-05-20T16:49:51;19.30;45.20
69932;DHT22;57243;52.064;5.116;2023-05-20T16:52:16;19.30;46.10
69932;DHT22;57243;52.064;5.116;2023-05-20T16:54:42;19.20;45.90
69932;DHT22;57243;52.064;5.116;2023-05-20T16:57:07;19.30;45.80
69932;DHT22;57243;52.064;5.116;2023-05-20T16:59:35;19.30;45.50
69932;DHT22;57243;52.064;5.116;2023-05-20T17:02:01;19.30;45.40
69932;DHT22;57243;52.064;5.116;2023-05-20T17:04:26;19.30;45.80
69932;DHT22;57243;52.064;5.116;2023-05-20T17:06:52;19.30;45.80
69932;DHT22;57243;52.064;5.116;2023-05-20T17:09:17;19.30;45.60
69932;DHT22;57243;52.064;5.116;2023-05-20T17:11:43;19.30;45.60
69932;DHT22;57243;52.064;5.116;2023-05-20T17:14:08;19.20;46.80
69932;DHT22;57243;52.064;5.116;2023-05-20T17:16:34;19.10;47.70